Flight Track Log - Related Links

Times and Time Zones

All times are in EST time to prevent confusion due to time zone crossing. See the PDT4314 flight status page for this flight to view local times or setup timezone preferences in your user account.

Time Position Orientation Groundspeed Altitude Reporting Facility
EST Latitude Longitude Course Direction KTS MPH feet Rate Location/Type
Tue 07:07:00 PM 41.8681 -75.8686 180° South  Level Estimated
Tue 07:08:00 PM 41.8218 -75.8940 202° Southwest  Level FlightAware Approximate
Tue 07:09:00 PM 41.7755 -75.9194 202° Southwest  Level FlightAware Approximate
Tue 07:10:00 PM 41.7273 -75.9017 154° Southeast  Level Estimated
Tue 07:11:00 PM 41.6790 -75.8840 160° South  Level Estimated
Tue 07:12:00 PM 41.6308 -75.8663 159° South  Level Estimated
Tue 07:13:00 PM 41.5840 -75.8426 159° South  Level FlightAware Approximate
Tue 07:14:00 PM 41.5372 -75.8188 159° South  Level FlightAware Approximate
Tue 07:15:00 PM 41.4889 -75.8016 153° Southeast  Level Estimated
Tue 07:16:00 PM 41.4406 -75.7845 161° South  Level Estimated
Tue 07:17:00 PM 41.3947 -75.7577 156° South  Level FlightAware Approximate
Tue 07:18:00 PM 41.3489 -75.7311 156° South  Level FlightAware Approximate
Tue 07:19:00 PM 41.3030 -75.7044 156° South  Level FlightAware Approximate
Tue 07:20:00 PM 41.2545 -75.6883 162° South  Level Estimated
Tue 07:21:00 PM 41.2074 -75.6658 160° South  Level FlightAware Approximate
Tue 07:22:00 PM 41.1604 -75.6432 160° South  Level FlightAware Approximate
Tue 07:23:00 PM 41.1133 -75.6207 160° South  Level FlightAware Approximate
Tue 07:24:00 PM 41.0662 -75.5982 160° South  Level FlightAware Approximate
Tue 07:25:00 PM 41.0192 -75.5758 160° South  Level FlightAware Approximate
Tue 07:25:17 PM 40.6000 -75.4833 162° South 271 312 6,700  Level Philadelphia TRACON
Tue 07:25:59 PM 40.5667 -75.4833 180° South 268 308 5,900 -941 Descending Philadelphia TRACON
Tue 07:26:00 PM 40.9704 -75.5613 163° South  Level Estimated
Tue 07:26:59 PM 40.4833 -75.4833 180° South 272 313 5,100  Level Philadelphia TRACON
Tue 07:27:00 PM 40.9229 -75.5404 162° South  Level FlightAware Approximate
Tue 07:27:54 PM 40.4167 -75.4667 169° South 257 296 5,000  Level Philadelphia TRACON
Tue 07:28:00 PM 40.8754 -75.5195 162° South  Level FlightAware Approximate
Tue 07:28:54 PM 40.3500 -75.4333 159° South 261 300 4,800  Level Philadelphia TRACON
Tue 07:29:00 PM 40.8279 -75.4987 162° South  Level FlightAware Approximate
Tue 07:29:54 PM 40.3000 -75.3833 143° Southeast 257 296 4,200  Level Philadelphia TRACON
Tue 07:30:00 PM 40.7805 -75.4779 162° South  Level FlightAware Approximate
Tue 07:30:53 PM 40.2333 -75.3333 150° Southeast 249 287 4,000  Level Philadelphia TRACON
Tue 07:31:54 PM 40.1667 -75.3000 159° South 242 278 4,000  Level Philadelphia TRACON
Tue 07:32:54 PM 40.1167 -75.2500 143° Southeast 242 278 4,000  Level Philadelphia TRACON
Tue 07:33:53 PM 40.0667 -75.2000 143° Southeast 246 283 4,000 -105 Level Philadelphia TRACON
Tue 07:34:48 PM 40.0333 -75.1333 123° Southeast 258 297 3,800 -522 Descending Philadelphia TRACON
Tue 07:35:48 PM 40.0000 -75.0500 118° Southeast 240 276 3,000 -850 Descending Philadelphia TRACON
Tue 07:36:48 PM 39.9500 -75.0667 194° South 201 231 2,100 -619 Descending Philadelphia TRACON
Tue 07:37:54 PM 39.9167 -75.1167 229° Southwest 164 189 1,700 -524 Descending Philadelphia TRACON
Tue 07:38:54 PM 39.9000 -75.1667 247° West 127 146 1,000 -684 Descending Philadelphia TRACON
Tue 07:39:48 PM 39.8833 -75.2000 237° Southwest 122 140 400 -667 Descending Philadelphia TRACON

Login

Don't have an account? Register now (free) for customized features, flight alerts, and more!